KMYR/MYR METAR and TAF weather

Enter ICAO airport designator
Station Type Date Time Source
KMYR METAR 2022/01/29 12:25 UTC NOAA

KMYR 291225Z 33022G27KT 1 1/2SM -SN BR BKN005 OVC009 00/00 A2985 RMK AO2 PK WND 32027/1225 P0002


Station Type Date Time Source
KMYR Decoded METAR 2022/01/29 12:25 UTC NOAA

Myrtle Beach Air Force Base, SC, United States (KMYR) 33-41N 078-56W 8M
Jan 29, 2022 - 07:25 AM EST / 2022.01.29 1225 UTC
Wind: from the NNW (330 degrees) at 25 MPH (22 KT) gusting to 31 MPH (27 KT):0
Visibility: 1 1/2 mile(s):0
Sky conditions: overcast
Weather: light snow; mist
Precipitation last hour: 0.02 inches
Temperature: 32 F (0 C)
Windchill: 19 F (-7 C):1
Dew Point: 32 F (0 C)
Relative Humidity: 100%
Pressure (altimeter): 29.85 in. Hg (1010 hPa)
ob: KMYR 291225Z 33022G27KT 1 1/2SM -SN BR BKN005 OVC009 00/00 A2985 RMK AO2 PK WND 32027/1225 P0002
cycle: 12

Station Type Date Time Source
KMYR TAF 2022/01/29 12:30 UTC NOAA

TAF KMYR 291127Z 2912/3012 31016G23KT 4SM -SN OVC007
TEMPO 2912/2914 2SM -SN
FM291500 33019G30KT P6SM SCT015 BKN030
FM291800 33017G27KT P6SM BKN200
FM292300 32010KT P6SM SKC
FM300600 VRB03KT P6SM SKC

Example: see airport list